sensor_id;sensor_type;location;lat;lon;timestamp;temperature;humidity
12229;DHT22;6177;52.402;9.800;2022-07-29T00:01:18;18.30;42.80
12229;DHT22;6177;52.402;9.800;2022-07-29T00:04:03;18.30;42.80
12229;DHT22;6177;52.402;9.800;2022-07-29T00:06:48;18.30;42.70
12229;DHT22;6177;52.402;9.800;2022-07-29T00:09:32;18.30;42.80
12229;DHT22;6177;52.402;9.800;2022-07-29T00:12:17;18.30;42.90
12229;DHT22;6177;52.402;9.800;2022-07-29T00:15:02;18.30;43.00
12229;DHT22;6177;52.402;9.800;2022-07-29T00:17:47;18.30;43.00
12229;DHT22;6177;52.402;9.800;2022-07-29T00:20:32;18.30;43.10
12229;DHT22;6177;52.402;9.800;2022-07-29T00:23:16;18.30;43.20
12229;DHT22;6177;52.402;9.800;2022-07-29T00:26:01;18.30;43.40
12229;DHT22;6177;52.402;9.800;2022-07-29T00:28:45;18.20;43.20
12229;DHT22;6177;52.402;9.800;2022-07-29T00:31:30;18.20;43.40
12229;DHT22;6177;52.402;9.800;2022-07-29T00:34:14;18.20;43.40
12229;DHT22;6177;52.402;9.800;2022-07-29T00:37:18;18.20;43.40
12229;DHT22;6177;52.402;9.800;2022-07-29T00:40:03;18.10;43.30
12229;DHT22;6177;52.402;9.800;2022-07-29T00:42:49;18.10;43.50
12229;DHT22;6177;52.402;9.800;2022-07-29T00:45:34;18.10;43.60
12229;DHT22;6177;52.402;9.800;2022-07-29T00:48:18;18.10;43.60
12229;DHT22;6177;52.402;9.800;2022-07-29T00:51:04;18.00;43.50
12229;DHT22;6177;52.402;9.800;2022-07-29T00:53:49;18.10;43.80
12229;DHT22;6177;52.402;9.800;2022-07-29T00:56:35;18.10;43.80
12229;DHT22;6177;52.402;9.800;2022-07-29T00:59:20;18.00;43.80
12229;DHT22;6177;52.402;9.800;2022-07-29T01:02:04;18.00;43.70
12229;DHT22;6177;52.402;9.800;2022-07-29T01:04:49;18.00;43.80
12229;DHT22;6177;52.402;9.800;2022-07-29T01:07:35;18.00;43.90
12229;DHT22;6177;52.402;9.800;2022-07-29T01:10:21;18.00;43.90
12229;DHT22;6177;52.402;9.800;2022-07-29T01:13:07;17.90;44.00
12229;DHT22;6177;52.402;9.800;2022-07-29T01:16:07;17.90;44.10
12229;DHT22;6177;52.402;9.800;2022-07-29T01:18:58;17.90;44.20
12229;DHT22;6177;52.402;9.800;2022-07-29T01:21:55;17.80;44.40
12229;DHT22;6177;52.402;9.800;2022-07-29T01:25:12;17.80;44.50
12229;DHT22;6177;52.402;9.800;2022-07-29T01:30:58;17.80;44.50
12229;DHT22;6177;52.402;9.800;2022-07-29T01:33:50;17.80;44.60
12229;DHT22;6177;52.402;9.800;2022-07-29T01:36:42;17.70;44.70
12229;DHT22;6177;52.402;9.800;2022-07-29T01:39:32;17.70;44.80
12229;DHT22;6177;52.402;9.800;2022-07-29T01:45:18;17.60;45.10
12229;DHT22;6177;52.402;9.800;2022-07-29T01:48:18;17.60;45.40
12229;DHT22;6177;52.402;9.800;2022-07-29T01:51:31;17.50;45.60
12229;DHT22;6177;52.402;9.800;2022-07-29T01:54:26;17.50;45.60
12229;DHT22;6177;52.402;9.800;2022-07-29T01:57:14;17.50;45.90
12229;DHT22;6177;52.402;9.800;2022-07-29T01:59:59;17.40;46.10
12229;DHT22;6177;52.402;9.800;2022-07-29T02:02:56;17.40;46.30
12229;DHT22;6177;52.402;9.800;2022-07-29T02:05:42;17.30;46.40
12229;DHT22;6177;52.402;9.800;2022-07-29T02:08:30;17.30;46.50
12229;DHT22;6177;52.402;9.800;2022-07-29T02:11:16;17.20;46.70
12229;DHT22;6177;52.402;9.800;2022-07-29T02:14:01;17.20;47.00
12229;DHT22;6177;52.402;9.800;2022-07-29T02:16:51;17.10;47.30
12229;DHT22;6177;52.402;9.800;2022-07-29T02:19:38;17.10;47.50
12229;DHT22;6177;52.402;9.800;2022-07-29T02:22:24;17.10;47.70
12229;DHT22;6177;52.402;9.800;2022-07-29T02:25:10;17.00;47.80
12229;DHT22;6177;52.402;9.800;2022-07-29T02:27:55;17.00;48.00
12229;DHT22;6177;52.402;9.800;2022-07-29T02:30:42;16.90;48.00
12229;DHT22;6177;52.402;9.800;2022-07-29T02:33:29;16.90;48.00
12229;DHT22;6177;52.402;9.800;2022-07-29T02:36:15;16.80;48.20
12229;DHT22;6177;52.402;9.800;2022-07-29T02:39:01;16.80;48.50
12229;DHT22;6177;52.402;9.800;2022-07-29T02:41:56;16.70;48.70
12229;DHT22;6177;52.402;9.800;2022-07-29T02:44:42;16.70;48.90
12229;DHT22;6177;52.402;9.800;2022-07-29T02:47:48;16.60;49.30
12229;DHT22;6177;52.402;9.800;2022-07-29T02:50:37;16.60;49.50
12229;DHT22;6177;52.402;9.800;2022-07-29T02:53:23;16.50;49.80
12229;DHT22;6177;52.402;9.800;2022-07-29T02:56:13;16.50;49.90
12229;DHT22;6177;52.402;9.800;2022-07-29T02:59:03;16.50;49.90
12229;DHT22;6177;52.402;9.800;2022-07-29T03:01:49;16.50;50.20
12229;DHT22;6177;52.402;9.800;2022-07-29T03:04:34;16.50;50.30
12229;DHT22;6177;52.402;9.800;2022-07-29T03:07:20;16.50;50.50
12229;DHT22;6177;52.402;9.800;2022-07-29T03:10:06;16.50;50.60
12229;DHT22;6177;52.402;9.800;2022-07-29T03:12:53;16.50;50.60
12229;DHT22;6177;52.402;9.800;2022-07-29T03:15:38;16.50;50.70
12229;DHT22;6177;52.402;9.800;2022-07-29T03:18:24;16.50;50.70
12229;DHT22;6177;52.402;9.800;2022-07-29T03:21:10;16.60;50.80
12229;DHT22;6177;52.402;9.800;2022-07-29T03:23:54;16.60;50.90
12229;DHT22;6177;52.402;9.800;2022-07-29T03:26:39;16.60;51.00
12229;DHT22;6177;52.402;9.800;2022-07-29T03:29:24;16.50;51.00
12229;DHT22;6177;52.402;9.800;2022-07-29T03:32:09;16.50;51.10
12229;DHT22;6177;52.402;9.800;2022-07-29T03:34:53;16.50;51.40
12229;DHT22;6177;52.402;9.800;2022-07-29T03:37:38;16.50;51.50
12229;DHT22;6177;52.402;9.800;2022-07-29T03:40:30;16.50;51.70
12229;DHT22;6177;52.402;9.800;2022-07-29T03:43:17;16.50;51.80
12229;DHT22;6177;52.402;9.800;2022-07-29T03:46:05;16.50;51.80
12229;DHT22;6177;52.402;9.800;2022-07-29T03:48:56;16.50;52.00
12229;DHT22;6177;52.402;9.800;2022-07-29T03:51:42;16.50;52.10
12229;DHT22;6177;52.402;9.800;2022-07-29T03:54:27;16.50;52.20
12229;DHT22;6177;52.402;9.800;2022-07-29T03:57:12;16.50;52.10
12229;DHT22;6177;52.402;9.800;2022-07-29T03:59:58;16.50;52.20
12229;DHT22;6177;52.402;9.800;2022-07-29T04:02:44;16.50;52.30
12229;DHT22;6177;52.402;9.800;2022-07-29T04:05:32;16.50;52.40
12229;DHT22;6177;52.402;9.800;2022-07-29T04:08:16;16.50;52.60
12229;DHT22;6177;52.402;9.800;2022-07-29T04:11:02;16.50;52.70
12229;DHT22;6177;52.402;9.800;2022-07-29T04:13:46;16.40;52.60
12229;DHT22;6177;52.402;9.800;2022-07-29T04:16:31;16.50;52.70
12229;DHT22;6177;52.402;9.800;2022-07-29T04:19:16;16.50;52.80
12229;DHT22;6177;52.402;9.800;2022-07-29T04:22:00;16.60;53.00
12229;DHT22;6177;52.402;9.800;2022-07-29T04:24:45;16.60;53.00
12229;DHT22;6177;52.402;9.800;2022-07-29T04:27:29;16.60;52.90
12229;DHT22;6177;52.402;9.800;2022-07-29T04:30:14;16.60;52.80
12229;DHT22;6177;52.402;9.800;2022-07-29T04:33:00;16.60;53.00
12229;DHT22;6177;52.402;9.800;2022-07-29T04:35:45;16.60;53.10
12229;DHT22;6177;52.402;9.800;2022-07-29T04:38:29;16.60;53.10
12229;DHT22;6177;52.402;9.800;2022-07-29T04:41:14;16.70;53.30
12229;DHT22;6177;52.402;9.800;2022-07-29T04:43:59;16.70;53.40
12229;DHT22;6177;52.402;9.800;2022-07-29T04:46:44;16.70;53.50
12229;DHT22;6177;52.402;9.800;2022-07-29T04:49:29;16.70;53.50
12229;DHT22;6177;52.402;9.800;2022-07-29T04:52:14;16.70;53.40
12229;DHT22;6177;52.402;9.800;2022-07-29T04:54:58;16.70;53.30
12229;DHT22;6177;52.402;9.800;2022-07-29T04:57:44;16.80;53.20
12229;DHT22;6177;52.402;9.800;2022-07-29T05:00:28;16.80;53.30
12229;DHT22;6177;52.402;9.800;2022-07-29T05:03:13;16.90;53.30
12229;DHT22;6177;52.402;9.800;2022-07-29T05:05:57;16.90;53.30
12229;DHT22;6177;52.402;9.800;2022-07-29T05:08:42;16.90;54.30
12229;DHT22;6177;52.402;9.800;2022-07-29T05:11:26;17.00;53.60
12229;DHT22;6177;52.402;9.800;2022-07-29T05:14:11;17.00;53.40
12229;DHT22;6177;52.402;9.800;2022-07-29T05:16:56;17.00;54.40
12229;DHT22;6177;52.402;9.800;2022-07-29T05:19:41;17.10;53.60
12229;DHT22;6177;52.402;9.800;2022-07-29T05:22:25;17.10;53.50
12229;DHT22;6177;52.402;9.800;2022-07-29T05:25:10;17.20;53.50
12229;DHT22;6177;52.402;9.800;2022-07-29T05:27:55;17.30;53.20
12229;DHT22;6177;52.402;9.800;2022-07-29T05:30:39;17.40;53.00
12229;DHT22;6177;52.402;9.800;2022-07-29T05:33:24;17.50;52.50
12229;DHT22;6177;52.402;9.800;2022-07-29T05:36:08;17.70;52.40
12229;DHT22;6177;52.402;9.800;2022-07-29T05:38:53;17.80;52.10
12229;DHT22;6177;52.402;9.800;2022-07-29T05:41:38;17.80;51.90
12229;DHT22;6177;52.402;9.800;2022-07-29T05:44:23;17.80;51.80
12229;DHT22;6177;52.402;9.800;2022-07-29T05:47:07;17.90;52.00
12229;DHT22;6177;52.402;9.800;2022-07-29T05:49:52;17.90;51.70
12229;DHT22;6177;52.402;9.800;2022-07-29T05:52:38;18.00;51.70
12229;DHT22;6177;52.402;9.800;2022-07-29T05:55:23;18.00;51.50
12229;DHT22;6177;52.402;9.800;2022-07-29T05:58:07;18.10;51.50
12229;DHT22;6177;52.402;9.800;2022-07-29T06:00:52;18.20;51.20
12229;DHT22;6177;52.402;9.800;2022-07-29T06:03:37;18.30;51.00
12229;DHT22;6177;52.402;9.800;2022-07-29T06:06:22;18.30;50.90
12229;DHT22;6177;52.402;9.800;2022-07-29T06:09:06;18.40;51.50
12229;DHT22;6177;52.402;9.800;2022-07-29T06:11:52;18.40;51.10
12229;DHT22;6177;52.402;9.800;2022-07-29T06:14:37;18.50;50.90
12229;DHT22;6177;52.402;9.800;2022-07-29T06:17:22;18.50;50.80
12229;DHT22;6177;52.402;9.800;2022-07-29T06:20:07;18.50;50.70
12229;DHT22;6177;52.402;9.800;2022-07-29T06:22:52;18.60;51.00
12229;DHT22;6177;52.402;9.800;2022-07-29T06:25:36;18.60;50.80
12229;DHT22;6177;52.402;9.800;2022-07-29T06:28:22;18.70;50.80
12229;DHT22;6177;52.402;9.800;2022-07-29T06:31:06;18.90;50.50
12229;DHT22;6177;52.402;9.800;2022-07-29T06:33:51;19.10;50.40
12229;DHT22;6177;52.402;9.800;2022-07-29T06:36:37;19.20;50.00
12229;DHT22;6177;52.402;9.800;2022-07-29T06:39:22;19.40;49.80
12229;DHT22;6177;52.402;9.800;2022-07-29T06:42:07;19.60;49.60
12229;DHT22;6177;52.402;9.800;2022-07-29T06:44:52;19.80;49.20
12229;DHT22;6177;52.402;9.800;2022-07-29T06:47:37;20.00;48.00
12229;DHT22;6177;52.402;9.800;2022-07-29T06:50:21;20.10;47.60
12229;DHT22;6177;52.402;9.800;2022-07-29T06:53:06;20.30;47.20
12229;DHT22;6177;52.402;9.800;2022-07-29T06:55:50;20.40;46.60
12229;DHT22;6177;52.402;9.800;2022-07-29T06:58:36;20.50;46.30
12229;DHT22;6177;52.402;9.800;2022-07-29T07:01:21;20.60;46.10
12229;DHT22;6177;52.402;9.800;2022-07-29T07:04:05;20.70;45.90
12229;DHT22;6177;52.402;9.800;2022-07-29T07:06:50;20.70;45.80
12229;DHT22;6177;52.402;9.800;2022-07-29T07:09:35;20.80;45.60
12229;DHT22;6177;52.402;9.800;2022-07-29T07:12:19;20.90;45.40
12229;DHT22;6177;52.402;9.800;2022-07-29T07:15:05;21.00;45.30
12229;DHT22;6177;52.402;9.800;2022-07-29T07:17:50;21.10;45.30
12229;DHT22;6177;52.402;9.800;2022-07-29T07:20:35;21.30;45.10
12229;DHT22;6177;52.402;9.800;2022-07-29T07:23:20;21.50;44.50
12229;DHT22;6177;52.402;9.800;2022-07-29T07:26:04;21.60;44.00
12229;DHT22;6177;52.402;9.800;2022-07-29T07:28:50;21.70;43.70
12229;DHT22;6177;52.402;9.800;2022-07-29T07:31:36;21.80;42.70
12229;DHT22;6177;52.402;9.800;2022-07-29T07:34:21;22.00;42.20
12229;DHT22;6177;52.402;9.800;2022-07-29T07:37:05;22.20;41.80
12229;DHT22;6177;52.402;9.800;2022-07-29T07:39:50;22.30;41.30
12229;DHT22;6177;52.402;9.800;2022-07-29T07:42:35;22.40;41.00
12229;DHT22;6177;52.402;9.800;2022-07-29T07:45:20;22.40;41.20
12229;DHT22;6177;52.402;9.800;2022-07-29T07:48:05;22.40;40.90
12229;DHT22;6177;52.402;9.800;2022-07-29T07:50:50;22.40;41.10
12229;DHT22;6177;52.402;9.800;2022-07-29T07:53:36;22.40;40.70
12229;DHT22;6177;52.402;9.800;2022-07-29T07:56:20;22.50;40.40
12229;DHT22;6177;52.402;9.800;2022-07-29T07:59:05;22.50;40.60
12229;DHT22;6177;52.402;9.800;2022-07-29T08:01:50;22.50;40.30
12229;DHT22;6177;52.402;9.800;2022-07-29T08:04:35;22.50;40.70
12229;DHT22;6177;52.402;9.800;2022-07-29T08:07:20;22.40;40.90
12229;DHT22;6177;52.402;9.800;2022-07-29T08:10:05;22.40;40.90
12229;DHT22;6177;52.402;9.800;2022-07-29T08:12:49;22.40;41.00
12229;DHT22;6177;52.402;9.800;2022-07-29T08:15:34;22.40;41.30
12229;DHT22;6177;52.402;9.800;2022-07-29T08:18:19;22.30;41.30
12229;DHT22;6177;52.402;9.800;2022-07-29T08:21:04;22.20;41.60
12229;DHT22;6177;52.402;9.800;2022-07-29T08:23:50;22.20;41.60
12229;DHT22;6177;52.402;9.800;2022-07-29T08:26:36;22.20;41.70
12229;DHT22;6177;52.402;9.800;2022-07-29T08:29:21;22.20;41.80
12229;DHT22;6177;52.402;9.800;2022-07-29T08:32:06;22.10;41.80
12229;DHT22;6177;52.402;9.800;2022-07-29T08:34:50;22.00;41.90
12229;DHT22;6177;52.402;9.800;2022-07-29T08:37:35;22.00;42.20
12229;DHT22;6177;52.402;9.800;2022-07-29T08:40:20;22.00;42.20
12229;DHT22;6177;52.402;9.800;2022-07-29T08:43:06;22.10;42.30
12229;DHT22;6177;52.402;9.800;2022-07-29T08:45:52;22.20;42.20
12229;DHT22;6177;52.402;9.800;2022-07-29T08:48:36;22.30;42.20
12229;DHT22;6177;52.402;9.800;2022-07-29T08:51:21;22.40;42.30
12229;DHT22;6177;52.402;9.800;2022-07-29T08:54:06;22.40;41.90
12229;DHT22;6177;52.402;9.800;2022-07-29T08:56:52;22.50;41.80
12229;DHT22;6177;52.402;9.800;2022-07-29T08:59:40;22.60;41.80
12229;DHT22;6177;52.402;9.800;2022-07-29T09:02:29;22.70;41.60
12229;DHT22;6177;52.402;9.800;2022-07-29T09:05:14;22.80;41.10
12229;DHT22;6177;52.402;9.800;2022-07-29T09:07:59;22.90;41.20
12229;DHT22;6177;52.402;9.800;2022-07-29T09:10:45;23.00;41.30
12229;DHT22;6177;52.402;9.800;2022-07-29T09:13:29;23.20;40.90
12229;DHT22;6177;52.402;9.800;2022-07-29T09:16:14;23.40;40.60
12229;DHT22;6177;52.402;9.800;2022-07-29T09:18:59;23.60;40.40
12229;DHT22;6177;52.402;9.800;2022-07-29T09:21:43;23.80;40.10
12229;DHT22;6177;52.402;9.800;2022-07-29T09:24:45;24.00;39.60
12229;DHT22;6177;52.402;9.800;2022-07-29T09:27:30;24.20;39.20
12229;DHT22;6177;52.402;9.800;2022-07-29T09:30:15;24.40;38.80
12229;DHT22;6177;52.402;9.800;2022-07-29T09:33:03;24.50;38.30
12229;DHT22;6177;52.402;9.800;2022-07-29T09:36:02;24.60;38.40
12229;DHT22;6177;52.402;9.800;2022-07-29T09:38:57;24.70;38.10
12229;DHT22;6177;52.402;9.800;2022-07-29T09:41:51;24.90;38.10
12229;DHT22;6177;52.402;9.800;2022-07-29T09:44:46;25.00;38.10
12229;DHT22;6177;52.402;9.800;2022-07-29T09:47:46;25.10;37.90
12229;DHT22;6177;52.402;9.800;2022-07-29T09:50:38;25.10;37.60
12229;DHT22;6177;52.402;9.800;2022-07-29T09:53:33;25.10;37.40
12229;DHT22;6177;52.402;9.800;2022-07-29T09:56:18;25.20;37.40
12229;DHT22;6177;52.402;9.800;2022-07-29T09:59:07;25.20;37.20
12229;DHT22;6177;52.402;9.800;2022-07-29T10:01:52;25.30;37.30
12229;DHT22;6177;52.402;9.800;2022-07-29T10:04:41;25.30;37.40
12229;DHT22;6177;52.402;9.800;2022-07-29T10:07:28;25.20;37.30
12229;DHT22;6177;52.402;9.800;2022-07-29T10:10:30;25.20;37.20
12229;DHT22;6177;52.402;9.800;2022-07-29T10:13:15;25.30;37.40
12229;DHT22;6177;52.402;9.800;2022-07-29T10:16:00;25.30;37.50
12229;DHT22;6177;52.402;9.800;2022-07-29T10:18:44;25.30;37.40
12229;DHT22;6177;52.402;9.800;2022-07-29T10:21:31;25.30;37.30
12229;DHT22;6177;52.402;9.800;2022-07-29T10:24:16;25.40;37.30
12229;DHT22;6177;52.402;9.800;2022-07-29T10:27:03;25.50;37.40
12229;DHT22;6177;52.402;9.800;2022-07-29T10:29:48;25.70;36.90
12229;DHT22;6177;52.402;9.800;2022-07-29T10:39:04;26.00;36.60
12229;DHT22;6177;52.402;9.800;2022-07-29T10:44:48;25.90;36.80
12229;DHT22;6177;52.402;9.800;2022-07-29T10:47:32;25.80;36.90
12229;DHT22;6177;52.402;9.800;2022-07-29T10:50:18;25.70;36.80
12229;DHT22;6177;52.402;9.800;2022-07-29T10:53:02;25.60;37.00
12229;DHT22;6177;52.402;9.800;2022-07-29T10:55:47;25.50;37.20
12229;DHT22;6177;52.402;9.800;2022-07-29T10:58:34;25.60;37.40
12229;DHT22;6177;52.402;9.800;2022-07-29T11:01:29;25.70;37.30
12229;DHT22;6177;52.402;9.800;2022-07-29T11:04:15;25.90;37.10
12229;DHT22;6177;52.402;9.800;2022-07-29T11:12:56;26.10;36.60
12229;DHT22;6177;52.402;9.800;2022-07-29T11:15:56;26.10;36.80
12229;DHT22;6177;52.402;9.800;2022-07-29T11:21:57;25.90;37.10
12229;DHT22;6177;52.402;9.800;2022-07-29T11:24:42;25.90;37.40
12229;DHT22;6177;52.402;9.800;2022-07-29T11:27:31;25.70;37.20
12229;DHT22;6177;52.402;9.800;2022-07-29T11:30:53;25.70;37.40
12229;DHT22;6177;52.402;9.800;2022-07-29T11:33:38;25.70;37.70
12229;DHT22;6177;52.402;9.800;2022-07-29T11:36:24;25.70;37.50
12229;DHT22;6177;52.402;9.800;2022-07-29T11:39:27;25.60;38.60
12229;DHT22;6177;52.402;9.800;2022-07-29T11:45:20;25.80;37.60
12229;DHT22;6177;52.402;9.800;2022-07-29T11:48:05;26.00;37.50
12229;DHT22;6177;52.402;9.800;2022-07-29T11:50:51;26.00;37.30
12229;DHT22;6177;52.402;9.800;2022-07-29T11:53:37;26.10;37.40
12229;DHT22;6177;52.402;9.800;2022-07-29T11:56:21;26.30;37.40
12229;DHT22;6177;52.402;9.800;2022-07-29T11:59:07;26.50;37.30
12229;DHT22;6177;52.402;9.800;2022-07-29T12:02:00;26.60;36.80
12229;DHT22;6177;52.402;9.800;2022-07-29T12:04:48;26.70;36.40
12229;DHT22;6177;52.402;9.800;2022-07-29T12:07:34;26.80;36.20
12229;DHT22;6177;52.402;9.800;2022-07-29T12:10:19;26.90;35.60
12229;DHT22;6177;52.402;9.800;2022-07-29T12:13:04;27.00;35.30
12229;DHT22;6177;52.402;9.800;2022-07-29T12:15:57;27.10;35.00
12229;DHT22;6177;52.402;9.800;2022-07-29T12:18:42;27.20;35.00
12229;DHT22;6177;52.402;9.800;2022-07-29T12:21:27;27.30;34.80
12229;DHT22;6177;52.402;9.800;2022-07-29T12:24:11;27.50;34.80
12229;DHT22;6177;52.402;9.800;2022-07-29T12:26:57;27.60;34.80
12229;DHT22;6177;52.402;9.800;2022-07-29T12:29:42;27.70;34.80
12229;DHT22;6177;52.402;9.800;2022-07-29T12:35:19;28.10;34.60
12229;DHT22;6177;52.402;9.800;2022-07-29T12:38:03;28.10;34.40
12229;DHT22;6177;52.402;9.800;2022-07-29T12:40:49;28.20;34.20
12229;DHT22;6177;52.402;9.800;2022-07-29T12:43:35;28.10;33.80
12229;DHT22;6177;52.402;9.800;2022-07-29T12:46:20;28.10;33.60
12229;DHT22;6177;52.402;9.800;2022-07-29T12:49:05;28.00;33.70
12229;DHT22;6177;52.402;9.800;2022-07-29T12:51:49;28.00;33.60
12229;DHT22;6177;52.402;9.800;2022-07-29T12:54:34;28.00;33.80
12229;DHT22;6177;52.402;9.800;2022-07-29T12:57:18;28.00;33.70
12229;DHT22;6177;52.402;9.800;2022-07-29T13:00:07;28.00;33.80
12229;DHT22;6177;52.402;9.800;2022-07-29T13:02:57;28.00;33.50
12229;DHT22;6177;52.402;9.800;2022-07-29T13:05:44;28.10;33.60
12229;DHT22;6177;52.402;9.800;2022-07-29T13:08:29;28.10;33.40
12229;DHT22;6177;52.402;9.800;2022-07-29T13:11:31;28.20;33.70
12229;DHT22;6177;52.402;9.800;2022-07-29T13:14:39;28.40;33.60
12229;DHT22;6177;52.402;9.800;2022-07-29T13:17:23;28.70;33.20
12229;DHT22;6177;52.402;9.800;2022-07-29T13:20:09;28.70;32.70
12229;DHT22;6177;52.402;9.800;2022-07-29T13:22:58;28.80;32.20
12229;DHT22;6177;52.402;9.800;2022-07-29T13:25:43;28.80;31.90
12229;DHT22;6177;52.402;9.800;2022-07-29T13:28:27;28.80;31.80
12229;DHT22;6177;52.402;9.800;2022-07-29T13:31:12;28.80;31.50
12229;DHT22;6177;52.402;9.800;2022-07-29T13:33:56;28.80;31.30
12229;DHT22;6177;52.402;9.800;2022-07-29T13:36:41;28.70;30.90
12229;DHT22;6177;52.402;9.800;2022-07-29T13:39:25;28.70;30.70
12229;DHT22;6177;52.402;9.800;2022-07-29T13:42:10;28.70;30.60
12229;DHT22;6177;52.402;9.800;2022-07-29T13:44:57;28.70;30.40
12229;DHT22;6177;52.402;9.800;2022-07-29T13:47:42;28.70;30.10
12229;DHT22;6177;52.402;9.800;2022-07-29T13:50:26;28.70;30.10
12229;DHT22;6177;52.402;9.800;2022-07-29T13:53:11;28.60;30.10
12229;DHT22;6177;52.402;9.800;2022-07-29T13:55:56;28.60;30.20
12229;DHT22;6177;52.402;9.800;2022-07-29T13:58:40;28.60;30.30
12229;DHT22;6177;52.402;9.800;2022-07-29T14:01:25;28.70;30.60
12229;DHT22;6177;52.402;9.800;2022-07-29T14:04:10;28.90;30.70
12229;DHT22;6177;52.402;9.800;2022-07-29T14:06:55;29.10;30.70
12229;DHT22;6177;52.402;9.800;2022-07-29T14:09:39;29.30;30.70
12229;DHT22;6177;52.402;9.800;2022-07-29T14:12:24;29.60;30.60
12229;DHT22;6177;52.402;9.800;2022-07-29T14:15:09;30.20;30.30
12229;DHT22;6177;52.402;9.800;2022-07-29T14:17:53;32.10;29.80
12229;DHT22;6177;52.402;9.800;2022-07-29T14:20:37;33.80;28.40
12229;DHT22;6177;52.402;9.800;2022-07-29T14:23:21;35.20;27.30
12229;DHT22;6177;52.402;9.800;2022-07-29T14:26:05;36.30;26.50
12229;DHT22;6177;52.402;9.800;2022-07-29T14:28:50;37.30;25.80
12229;DHT22;6177;52.402;9.800;2022-07-29T14:31:35;37.40;25.20
12229;DHT22;6177;52.402;9.800;2022-07-29T14:34:19;37.40;25.00
12229;DHT22;6177;52.402;9.800;2022-07-29T14:37:03;37.50;24.70
12229;DHT22;6177;52.402;9.800;2022-07-29T14:39:49;37.50;24.60
12229;DHT22;6177;52.402;9.800;2022-07-29T14:42:33;37.60;24.70
12229;DHT22;6177;52.402;9.800;2022-07-29T14:45:17;38.20;24.70
12229;DHT22;6177;52.402;9.800;2022-07-29T14:48:01;39.10;24.20
12229;DHT22;6177;52.402;9.800;2022-07-29T14:50:46;39.50;24.00
12229;DHT22;6177;52.402;9.800;2022-07-29T14:53:30;39.50;23.60
12229;DHT22;6177;52.402;9.800;2022-07-29T14:56:14;39.50;23.00
12229;DHT22;6177;52.402;9.800;2022-07-29T14:58:58;38.80;22.80
12229;DHT22;6177;52.402;9.800;2022-07-29T15:01:43;38.10;23.00
12229;DHT22;6177;52.402;9.800;2022-07-29T15:04:27;37.40;23.40
12229;DHT22;6177;52.402;9.800;2022-07-29T15:07:12;36.70;23.70
12229;DHT22;6177;52.402;9.800;2022-07-29T15:09:56;36.00;23.90
12229;DHT22;6177;52.402;9.800;2022-07-29T15:12:40;35.50;24.30
12229;DHT22;6177;52.402;9.800;2022-07-29T15:15:25;35.30;24.50
12229;DHT22;6177;52.402;9.800;2022-07-29T15:18:10;35.70;24.80
12229;DHT22;6177;52.402;9.800;2022-07-29T15:20:54;36.00;24.50
12229;DHT22;6177;52.402;9.800;2022-07-29T15:23:38;36.40;24.30
12229;DHT22;6177;52.402;9.800;2022-07-29T15:26:23;37.10;24.10
12229;DHT22;6177;52.402;9.800;2022-07-29T15:29:07;37.50;23.80
12229;DHT22;6177;52.402;9.800;2022-07-29T15:31:52;38.00;23.50
12229;DHT22;6177;52.402;9.800;2022-07-29T15:34:36;38.40;23.10
12229;DHT22;6177;52.402;9.800;2022-07-29T15:37:21;38.20;22.90
12229;DHT22;6177;52.402;9.800;2022-07-29T15:40:06;37.60;22.90
12229;DHT22;6177;52.402;9.800;2022-07-29T15:42:50;36.70;23.00
12229;DHT22;6177;52.402;9.800;2022-07-29T15:45:41;35.90;23.30
12229;DHT22;6177;52.402;9.800;2022-07-29T15:48:46;35.30;23.60
12229;DHT22;6177;52.402;9.800;2022-07-29T15:51:30;34.70;23.90
12229;DHT22;6177;52.402;9.800;2022-07-29T15:54:14;34.30;24.10
12229;DHT22;6177;52.402;9.800;2022-07-29T15:57:00;33.80;24.30
12229;DHT22;6177;52.402;9.800;2022-07-29T15:59:45;33.30;24.50
12229;DHT22;6177;52.402;9.800;2022-07-29T16:02:29;32.80;24.70
12229;DHT22;6177;52.402;9.800;2022-07-29T16:05:15;32.50;24.70
12229;DHT22;6177;52.402;9.800;2022-07-29T16:07:59;32.00;24.90
12229;DHT22;6177;52.402;9.800;2022-07-29T16:10:43;31.60;24.80
12229;DHT22;6177;52.402;9.800;2022-07-29T16:13:28;31.30;25.00
12229;DHT22;6177;52.402;9.800;2022-07-29T16:16:12;31.00;25.10
12229;DHT22;6177;52.402;9.800;2022-07-29T16:18:56;30.80;25.20
12229;DHT22;6177;52.402;9.800;2022-07-29T16:21:41;30.60;25.40
12229;DHT22;6177;52.402;9.800;2022-07-29T16:24:25;30.60;25.60
12229;DHT22;6177;52.402;9.800;2022-07-29T16:27:12;30.50;25.80
12229;DHT22;6177;52.402;9.800;2022-07-29T16:29:56;30.50;25.60
12229;DHT22;6177;52.402;9.800;2022-07-29T16:32:41;30.50;25.80
12229;DHT22;6177;52.402;9.800;2022-07-29T16:35:25;30.50;25.90
12229;DHT22;6177;52.402;9.800;2022-07-29T16:38:09;30.40;25.80
12229;DHT22;6177;52.402;9.800;2022-07-29T16:40:54;30.50;25.90
12229;DHT22;6177;52.402;9.800;2022-07-29T16:43:38;30.50;25.90
12229;DHT22;6177;52.402;9.800;2022-07-29T16:46:22;30.50;25.80
12229;DHT22;6177;52.402;9.800;2022-07-29T16:49:08;30.50;25.90
12229;DHT22;6177;52.402;9.800;2022-07-29T16:51:52;30.50;26.00
12229;DHT22;6177;52.402;9.800;2022-07-29T16:54:37;30.40;26.00
12229;DHT22;6177;52.402;9.800;2022-07-29T16:57:21;30.20;25.90
12229;DHT22;6177;52.402;9.800;2022-07-29T17:00:06;30.00;25.90
12229;DHT22;6177;52.402;9.800;2022-07-29T17:02:51;29.90;26.00
12229;DHT22;6177;52.402;9.800;2022-07-29T17:05:35;29.80;26.30
12229;DHT22;6177;52.402;9.800;2022-07-29T17:08:20;29.70;26.30
12229;DHT22;6177;52.402;9.800;2022-07-29T17:11:04;29.60;26.40
12229;DHT22;6177;52.402;9.800;2022-07-29T17:13:48;29.40;26.40
12229;DHT22;6177;52.402;9.800;2022-07-29T17:16:33;29.20;26.50
12229;DHT22;6177;52.402;9.800;2022-07-29T17:19:17;29.10;26.70
12229;DHT22;6177;52.402;9.800;2022-07-29T17:22:02;28.90;26.90
12229;DHT22;6177;52.402;9.800;2022-07-29T17:24:47;28.80;27.00
12229;DHT22;6177;52.402;9.800;2022-07-29T17:27:31;28.70;27.20
12229;DHT22;6177;52.402;9.800;2022-07-29T17:30:16;28.50;27.30
12229;DHT22;6177;52.402;9.800;2022-07-29T17:33:00;28.40;27.40
12229;DHT22;6177;52.402;9.800;2022-07-29T17:35:45;28.30;27.60
12229;DHT22;6177;52.402;9.800;2022-07-29T17:39:00;28.20;27.70
12229;DHT22;6177;52.402;9.800;2022-07-29T17:41:44;28.10;27.80
12229;DHT22;6177;52.402;9.800;2022-07-29T17:44:29;28.00;28.00
12229;DHT22;6177;52.402;9.800;2022-07-29T17:47:14;27.90;28.20
12229;DHT22;6177;52.402;9.800;2022-07-29T17:49:58;27.80;28.30
12229;DHT22;6177;52.402;9.800;2022-07-29T17:52:43;27.70;28.40
12229;DHT22;6177;52.402;9.800;2022-07-29T17:55:27;27.70;28.60
12229;DHT22;6177;52.402;9.800;2022-07-29T17:58:11;27.60;28.70
12229;DHT22;6177;52.402;9.800;2022-07-29T18:00:55;27.50;28.70
12229;DHT22;6177;52.402;9.800;2022-07-29T18:03:39;27.50;28.80
12229;DHT22;6177;52.402;9.800;2022-07-29T18:06:24;27.40;28.90
12229;DHT22;6177;52.402;9.800;2022-07-29T18:09:09;27.40;29.10
12229;DHT22;6177;52.402;9.800;2022-07-29T18:11:53;27.30;29.10
12229;DHT22;6177;52.402;9.800;2022-07-29T18:14:37;27.30;29.40
12229;DHT22;6177;52.402;9.800;2022-07-29T18:17:22;27.20;29.50